Time;durP1;ratioP1;P1;durP2;ratioP2;P2;SDS_P1;SDS_P2;PMS_P1;PMS_P2;Temp;Humidity;BMP_temperature;BMP_pressure;BME280_temperature;BME280_humidity;BME280_pressure;Samples;Min_cycle;Max_cycle;Signal;HPM_P1;HPM_P2
2022/08/29 00:02:14;;;;;;;2.33;0.90;;;;;;;15.26;65.74;100764.75;5051745;28;20587;-83
2022/08/29 00:04:39;;;;;;;2.70;1.20;;;;;;;15.17;65.84;100761.41;5051632;28;20087;-83
2022/08/29 00:07:05;;;;;;;2.72;0.70;;;;;;;15.18;66.01;100756.72;5051683;28;20287;-83
2022/08/29 00:09:30;;;;;;;2.50;0.73;;;;;;;15.18;66.08;100751.22;5051785;28;20040;-83
2022/08/29 00:11:55;;;;;;;2.78;1.00;;;;;;;15.22;65.95;100757.59;5051567;28;20029;-83
2022/08/29 00:14:21;;;;;;;;;;;;;;;15.24;65.78;100767.06;5052111;28;20036;-83
2022/08/29 00:16:46;;;;;;;3.10;0.80;;;;;;;15.19;66.10;100763.78;5051593;28;20397;-82
2022/08/29 00:19:11;;;;;;;;;;;;;;;15.17;66.09;100760.59;5052020;28;20039;-83
2022/08/29 00:21:36;;;;;;;1.73;0.50;;;;;;;15.19;66.17;100766.53;5051794;28;19931;-83
2022/08/29 00:24:02;;;;;;;2.33;1.00;;;;;;;15.12;66.30;100764.41;5051682;28;20359;-83
2022/08/29 00:26:27;;;;;;;1.10;0.57;;;;;;;15.22;66.18;100763.88;5054472;28;20285;-83
2022/08/29 00:28:53;;;;;;;3.50;0.90;;;;;;;15.32;66.13;100762.59;5055570;28;20029;-82
2022/08/29 00:31:21;;;;;;;1.83;0.73;;;;;;;15.33;65.71;100756.75;5055501;28;20029;-83
2022/08/29 00:33:46;;;;;;;3.25;0.95;;;;;;;15.20;66.31;100752.47;5055318;28;20266;-84
2022/08/29 00:36:12;;;;;;;3.07;0.70;;;;;;;15.15;66.55;100760.94;5055182;28;20037;-83
2022/08/29 00:38:37;;;;;;;3.25;0.93;;;;;;;15.08;66.86;100751.72;5037096;28;20264;-84
2022/08/29 00:41:04;;;;;;;1.52;0.60;;;;;;;14.99;67.04;100754.63;5055421;28;20051;-84
2022/08/29 00:43:33;;;;;;;3.35;0.85;;;;;;;14.80;67.77;100759.94;5055291;28;20029;-84
2022/08/29 00:46:19;;;;;;;2.40;0.70;;;;;;;14.65;68.51;100762.25;5055257;28;20380;-84
2022/08/29 00:48:52;;;;;;;1.77;0.60;;;;;;;14.96;67.38;100769.03;5055240;28;20029;-84
2022/08/29 00:51:19;;;;;;;2.60;0.80;;;;;;;15.00;67.47;100769.91;5055266;28;20029;-84
2022/08/29 00:53:48;;;;;;;1.48;0.80;;;;;;;14.95;67.59;100770.97;5037312;28;20060;-84
2022/08/29 00:56:16;;;;;;;2.85;0.80;;;;;;;14.90;67.70;100762.19;5055035;28;20033;-84
2022/08/29 00:58:46;;;;;;;5.13;0.90;;;;;;;14.96;67.54;100771.78;5054814;28;20041;-84
2022/08/29 01:01:12;;;;;;;2.75;0.85;;;;;;;14.94;67.81;100768.56;5054756;28;20083;-84
2022/08/29 01:03:38;;;;;;;4.13;1.13;;;;;;;14.96;67.74;100756.13;5055416;28;20045;-84
2022/08/29 01:06:05;;;;;;;3.10;0.93;;;;;;;14.89;67.91;100755.91;5057067;28;20033;-84
2022/08/29 01:08:31;;;;;;;1.38;0.68;;;;;;;14.81;68.03;100759.59;5058608;28;20064;-84
2022/08/29 01:13:46;;;;;;;2.15;1.05;;;;;;;14.79;68.71;100755.59;5054888;28;20056;-84
2022/08/29 01:16:13;;;;;;;3.45;1.00;;;;;;;14.80;68.78;100746.25;5055019;28;20028;-85
2022/08/29 01:18:41;;;;;;;3.35;0.80;;;;;;;14.73;69.07;100749.56;5054597;28;20025;-84
2022/08/29 01:21:20;;;;;;;3.03;0.80;;;;;;;14.67;69.49;100754.47;5054660;28;20051;-83
2022/08/29 01:24:08;;;;;;;1.83;0.70;;;;;;;14.78;69.12;100754.81;5054306;28;20029;-83
2022/08/29 01:26:36;;;;;;;2.75;1.10;;;;;;;14.71;69.34;100758.13;5054231;28;20033;-82
2022/08/29 01:29:02;;;;;;;2.85;0.65;;;;;;;14.76;69.31;100754.34;5053991;28;20033;-82
2022/08/29 01:31:35;;;;;;;;;;;;;;;14.63;69.59;100753.59;5054922;28;20035;-83
2022/08/29 01:34:00;;;;;;;3.53;1.10;;;;;;;14.66;69.64;100760.31;5054346;28;20236;-83
2022/08/29 01:36:40;;;;;;;1.83;0.73;;;;;;;14.63;69.70;100764.56;5054143;28;20041;-83
2022/08/29 01:39:06;;;;;;;2.65;0.77;;;;;;;14.67;69.84;100767.41;5054308;28;20060;-82
2022/08/29 01:41:32;;;;;;;2.67;0.80;;;;;;;14.75;69.47;100760.97;5054186;28;20025;-83
2022/08/29 01:43:57;;;;;;;2.35;0.63;;;;;;;14.81;69.47;100767.03;5054345;28;20035;-84
2022/08/29 01:46:29;;;;;;;3.75;1.35;;;;;;;14.75;69.40;100766.44;5054184;28;20099;-84
2022/08/29 01:48:55;;;;;;;3.20;0.77;;;;;;;14.66;69.80;100763.84;5053733;28;20032;-84
2022/08/29 01:51:21;;;;;;;2.92;0.80;;;;;;;14.62;69.94;100765.69;5053797;28;20043;-84
2022/08/29 01:53:46;;;;;;;1.50;0.70;;;;;;;14.61;70.17;100766.00;5053845;28;20090;-83
2022/08/29 01:56:17;;;;;;;3.03;1.25;;;;;;;14.55;70.47;100775.63;5054229;28;20037;-84
2022/08/29 01:58:44;;;;;;;2.22;0.82;;;;;;;14.56;70.42;100775.28;5035678;28;20361;-83
2022/08/29 02:01:13;;;;;;;4.40;0.98;;;;;;;14.69;70.20;100770.59;5053484;28;20122;-83
2022/08/29 02:03:38;;;;;;;2.20;0.77;;;;;;;14.75;69.92;100774.66;5053383;28;20148;-83
2022/08/29 02:06:04;;;;;;;2.47;0.77;;;;;;;14.75;69.95;100775.47;5053435;28;20123;-84
2022/08/29 02:08:29;;;;;;;4.18;0.80;;;;;;;14.75;69.80;100778.22;5035145;28;20039;-83
2022/08/29 02:10:56;;;;;;;3.63;0.95;;;;;;;14.69;70.08;100773.31;5053351;28;20025;-84
2022/08/29 02:13:23;;;;;;;2.40;0.70;;;;;;;14.59;70.45;100780.06;5053181;28;20090;-84
2022/08/29 02:15:49;;;;;;;1.75;0.60;;;;;;;14.63;70.21;100770.03;5053119;28;20497;-83
2022/08/29 02:18:14;;;;;;;1.95;0.70;;;;;;;14.60;70.34;100770.69;5053650;28;20036;-84
2022/08/29 02:20:40;;;;;;;3.45;0.90;;;;;;;14.57;70.50;100773.34;5053467;28;20195;-84
2022/08/29 02:23:05;;;;;;;2.40;0.93;;;;;;;14.56;70.70;100779.97;5053811;28;20082;-85
2022/08/29 02:25:42;;;;;;;3.27;1.10;;;;;;;14.57;70.58;100787.03;5052833;28;20044;-84
2022/08/29 02:28:14;;;;;;;2.05;0.80;;;;;;;14.45;71.00;100785.13;5053154;28;20256;-85
2022/08/29 02:30:42;;;;;;;4.50;1.48;;;;;;;14.47;70.99;100782.06;5053706;28;20178;-84
2022/08/29 02:33:08;;;;;;;2.58;0.90;;;;;;;14.56;70.67;100786.25;5053251;28;20128;-85
2022/08/29 02:35:34;;;;;;;2.22;0.90;;;;;;;14.55;70.90;100790.13;5053674;28;20194;-85
2022/08/29 02:38:00;;;;;;;3.13;0.80;;;;;;;14.55;70.90;100784.66;5053173;28;20031;-85
2022/08/29 02:40:27;;;;;;;3.70;0.90;;;;;;;14.52;70.80;100799.03;5052994;28;20119;-85
2022/08/29 02:42:53;;;;;;;3.70;0.90;;;;;;;14.41;71.48;100795.13;5053081;28;20052;-85
2022/08/29 02:45:20;;;;;;;2.35;0.80;;;;;;;14.41;71.32;100789.66;5052586;28;20498;-83
2022/08/29 02:47:46;;;;;;;2.45;1.00;;;;;;;14.51;71.10;100786.50;5052140;28;20039;-83
2022/08/29 02:50:12;;;;;;;3.20;1.17;;;;;;;14.49;71.48;100790.72;5052478;28;20025;-83
2022/08/29 02:52:39;;;;;;;1.80;0.55;;;;;;;14.49;71.50;100794.25;5034136;28;20056;-83
2022/08/29 02:55:05;;;;;;;2.75;0.90;;;;;;;14.46;71.67;100794.94;5052614;28;20106;-83
2022/08/29 02:57:30;;;;;;;4.82;1.10;;;;;;;14.47;71.36;100793.00;5052006;28;20045;-84
2022/08/29 02:59:56;;;;;;;3.73;1.07;;;;;;;14.54;71.42;100802.25;5052561;28;20029;-83
2022/08/29 03:02:21;;;;;;;3.42;1.10;;;;;;;14.41;71.60;100795.94;5052735;28;20298;-83
2022/08/29 03:04:46;;;;;;;2.57;0.80;;;;;;;14.42;71.47;100796.72;5052858;28;20372;-83
2022/08/29 03:07:12;;;;;;;2.08;0.80;;;;;;;14.38;72.08;100796.63;5035638;28;20769;-84
2022/08/29 03:09:37;;;;;;;2.90;0.95;;;;;;;14.57;71.54;100796.06;5053073;28;20072;-83
2022/08/29 03:12:02;;;;;;;1.87;0.77;;;;;;;14.59;71.75;100798.44;5052460;28;20029;-83
2022/08/29 03:14:28;;;;;;;2.33;0.82;;;;;;;14.62;71.01;100793.09;5052804;28;20302;-83
2022/08/29 03:16:53;;;;;;;3.43;0.97;;;;;;;14.52;71.38;100790.81;5052498;28;20095;-82
2022/08/29 03:19:19;;;;;;;3.15;0.90;;;;;;;14.52;71.35;100781.81;5052472;28;20328;-82
2022/08/29 03:21:44;;;;;;;2.58;1.00;;;;;;;14.43;71.75;100788.19;5051965;28;20451;-82
2022/08/29 03:24:10;;;;;;;2.58;0.88;;;;;;;14.34;71.70;100789.44;5052198;28;20033;-82
2022/08/29 03:26:35;;;;;;;3.00;1.00;;;;;;;14.24;71.99;100778.94;5052050;28;20063;-82
2022/08/29 03:29:02;;;;;;;7.90;1.20;;;;;;;14.29;72.09;100781.47;5052146;28;20486;-82
2022/08/29 03:31:27;;;;;;;2.70;1.00;;;;;;;14.31;72.37;100779.19;5034324;28;20460;-82
2022/08/29 03:33:52;;;;;;;4.93;1.20;;;;;;;14.30;72.46;100777.59;5052119;28;20029;-82
2022/08/29 03:36:18;;;;;;;5.47;1.13;;;;;;;14.23;72.50;100777.34;5052259;28;20032;-84
2022/08/29 03:38:45;;;;;;;7.95;1.67;;;;;;;14.21;72.68;100785.91;5051854;28;20025;-84
2022/08/29 03:41:18;;;;;;;5.88;1.10;;;;;;;14.14;72.83;100781.00;5052003;28;20036;-83
2022/08/29 03:43:43;;;;;;;3.33;1.40;;;;;;;14.05;73.20;100774.84;5051872;28;20071;-84
2022/08/29 03:46:08;;;;;;;5.45;1.77;;;;;;;14.10;72.78;100771.84;5051993;28;20111;-84
2022/08/29 03:48:34;;;;;;;5.07;2.03;;;;;;;14.03;72.86;100770.84;5052373;28;20056;-83
2022/08/29 03:50:59;;;;;;;7.75;1.88;;;;;;;14.04;73.14;100770.50;5052309;28;20377;-83
2022/08/29 03:53:25;;;;;;;8.18;1.38;;;;;;;13.85;73.57;100767.53;5052058;28;20025;-84
2022/08/29 03:55:51;;;;;;;3.90;1.10;;;;;;;13.77;74.05;100771.97;5052296;28;20411;-84
2022/08/29 03:58:16;;;;;;;7.07;1.43;;;;;;;13.69;74.50;100767.38;5052141;28;20029;-83
2022/08/29 04:00:42;;;;;;;9.52;3.60;;;;;;;13.64;74.77;100762.16;5053415;28;20033;-83
2022/08/29 04:03:07;;;;;;;4.13;1.55;;;;;;;13.59;74.82;100758.81;5055576;28;20365;-83
2022/08/29 04:05:32;;;;;;;3.47;1.30;;;;;;;13.61;74.92;100764.75;5056167;28;20083;-84
2022/08/29 04:07:58;;;;;;;5.75;1.40;;;;;;;13.62;75.03;100766.38;5055505;28;20029;-83
2022/08/29 04:10:33;;;;;;;5.30;1.33;;;;;;;13.58;75.07;100759.94;5055751;28;20100;-84
2022/08/29 04:12:59;;;;;;;3.63;1.23;;;;;;;13.58;75.24;100762.69;5055828;28;20029;-83
2022/08/29 04:15:26;;;;;;;2.65;1.00;;;;;;;13.59;75.24;100758.81;5055573;28;20084;-83
2022/08/29 04:17:54;;;;;;;9.93;1.50;;;;;;;13.53;75.51;100752.75;5055410;28;20418;-83
2022/08/29 04:20:21;;;;;;;3.88;1.20;;;;;;;13.54;75.56;100771.56;5055509;28;20044;-82
2022/08/29 04:22:48;;;;;;;3.47;1.13;;;;;;;13.58;75.49;100777.16;5055395;28;20029;-82
2022/08/29 04:25:14;;;;;;;3.85;1.10;;;;;;;13.72;74.92;100772.19;5055415;28;20112;-83
2022/08/29 04:27:40;;;;;;;3.53;1.30;;;;;;;13.69;75.00;100774.81;5054955;28;20344;-80
2022/08/29 04:30:10;;;;;;;3.15;1.10;;;;;;;13.67;75.03;100769.66;5054948;28;20152;-82
2022/08/29 04:32:36;;;;;;;7.75;1.40;;;;;;;13.70;74.89;100770.91;5055220;28;20041;-81
2022/08/29 04:35:02;;;;;;;4.78;1.20;;;;;;;13.67;75.37;100771.59;5055008;28;20044;-81
2022/08/29 04:37:28;;;;;;;3.28;1.15;;;;;;;13.81;75.27;100777.56;5054663;28;20028;-81
2022/08/29 04:39:53;;;;;;;6.63;1.13;;;;;;;13.78;74.57;100778.25;5054607;28;20444;-81
2022/08/29 04:42:19;;;;;;;3.38;1.25;;;;;;;13.76;74.72;100770.34;5054556;28;20167;-80
2022/08/29 04:44:46;;;;;;;3.45;1.42;;;;;;;13.73;74.98;100775.72;5054641;28;20100;-80
2022/08/29 04:47:11;;;;;;;3.10;1.13;;;;;;;13.68;75.59;100775.94;5054870;28;20037;-81
2022/08/29 04:49:36;;;;;;;3.13;1.33;;;;;;;13.60;75.43;100776.81;5054622;28;20406;-78
2022/08/29 04:52:02;;;;;;;5.43;1.53;;;;;;;13.64;75.51;100775.81;5054514;28;20041;-77
2022/08/29 04:54:28;;;;;;;4.10;1.20;;;;;;;13.53;76.03;100775.44;5054615;28;20105;-78
2022/08/29 04:56:54;;;;;;;;;;;;;;;13.52;76.02;100770.31;5054758;28;20029;-77
2022/08/29 04:59:19;;;;;;;3.15;1.23;;;;;;;13.52;76.25;100782.06;5036575;28;19909;-77
2022/08/29 05:01:45;;;;;;;5.90;1.20;;;;;;;13.48;76.41;100783.09;5054452;28;20020;-73
2022/08/29 05:04:10;;;;;;;3.53;1.42;;;;;;;13.50;76.31;100787.06;5054117;28;20088;-72
2022/08/29 05:06:36;;;;;;;3.10;1.08;;;;;;;13.49;76.23;100788.22;5035816;28;20068;-73
2022/08/29 05:09:01;;;;;;;4.25;1.20;;;;;;;13.41;76.37;100780.88;5053699;28;20463;-72
2022/08/29 05:11:29;;;;;;;6.55;1.70;;;;;;;13.40;76.67;100786.69;5053299;28;20033;-73
2022/08/29 05:13:54;;;;;;;4.55;1.55;;;;;;;13.42;76.51;100792.63;5035753;28;20082;-73
2022/08/29 05:16:20;;;;;;;4.63;1.10;;;;;;;13.44;76.84;100796.66;5035689;28;20060;-73
2022/08/29 05:18:45;;;;;;;3.83;1.13;;;;;;;13.52;76.30;100792.22;5053629;28;20033;-73
2022/08/29 05:21:12;;;;;;;2.58;1.02;;;;;;;13.52;76.16;100793.00;5053688;28;20259;-73
2022/08/29 05:23:39;;;;;;;3.20;1.10;;;;;;;13.52;76.34;100793.00;5035817;28;20033;-72
2022/08/29 05:26:04;;;;;;;3.67;1.65;;;;;;;13.57;76.10;100800.19;5035548;28;20039;-72
2022/08/29 05:28:31;;;;;;;4.25;1.10;;;;;;;13.60;76.17;100795.97;5053585;28;20029;-73
2022/08/29 05:30:57;;;;;;;4.70;1.20;;;;;;;13.61;75.75;100792.13;5053312;28;20108;-72
2022/08/29 05:33:22;;;;;;;4.47;1.63;;;;;;;13.57;76.10;100791.97;5035191;28;20471;-72
2022/08/29 05:35:48;;;;;;;3.95;1.58;;;;;;;13.51;76.46;100791.41;5052886;28;20040;-72
2022/08/29 05:38:13;;;;;;;3.88;1.35;;;;;;;13.77;75.84;100798.53;5053225;28;20082;-72
2022/08/29 05:40:40;;;;;;;6.68;1.20;;;;;;;13.90;75.11;100797.41;5053096;28;20029;-72
2022/08/29 05:43:08;;;;;;;3.90;1.65;;;;;;;13.95;74.36;100799.16;5053301;28;20500;-72
2022/08/29 05:45:34;;;;;;;3.65;1.38;;;;;;;13.91;74.74;100793.53;5053329;28;20178;-72
2022/08/29 05:48:03;;;;;;;2.83;1.10;;;;;;;13.89;74.74;100806.75;5052637;28;20056;-72
2022/08/29 05:50:28;;;;;;;3.40;1.50;;;;;;;13.79;75.43;100804.47;5052859;28;20425;-72
2022/08/29 05:52:54;;;;;;;5.10;1.40;;;;;;;13.71;75.76;100808.09;5053053;28;20071;-72
2022/08/29 05:55:19;;;;;;;3.50;1.17;;;;;;;13.71;75.69;100806.16;5052761;28;20614;-73
2022/08/29 05:57:44;;;;;;;5.30;1.40;;;;;;;13.71;76.17;100813.56;5052834;28;20416;-72
2022/08/29 06:00:11;;;;;;;4.50;1.42;;;;;;;13.80;75.00;100817.03;5052834;28;20353;-72
2022/08/29 06:02:37;;;;;;;4.38;1.73;;;;;;;13.67;75.37;100816.19;5052848;28;20029;-74
2022/08/29 06:05:03;;;;;;;6.20;1.40;;;;;;;13.65;75.61;100820.41;5052741;28;20120;-73
2022/08/29 06:07:29;;;;;;;4.53;1.50;;;;;;;13.66;75.29;100816.53;5052382;28;20383;-74
2022/08/29 06:09:54;;;;;;;;;;;;;;;13.77;75.29;100812.22;5052611;28;20033;-72
2022/08/29 06:12:23;;;;;;;4.57;1.27;;;;;;;13.85;74.71;100819.53;5052562;28;19919;-72
2022/08/29 06:14:48;;;;;;;6.45;1.70;;;;;;;13.93;74.08;100813.16;5018060;28;20313;-72
2022/08/29 06:17:13;;;;;;;4.63;1.37;;;;;;;13.93;74.45;100810.41;5052601;28;20158;-73
2022/08/29 06:19:40;;;;;;;6.38;1.90;;;;;;;14.03;74.56;100807.25;5034274;28;20124;-73
2022/08/29 06:22:08;;;;;;;5.82;2.47;;;;;;;13.98;74.50;100810.22;5052259;28;20112;-73
2022/08/29 06:24:34;;;;;;;4.45;1.55;;;;;;;14.14;74.24;100811.13;5033489;28;20036;-73
2022/08/29 06:27:00;;;;;;;6.35;1.80;;;;;;;14.23;73.92;100813.75;5052126;28;20028;-73
2022/08/29 06:29:26;;;;;;;5.22;1.58;;;;;;;14.23;73.73;100813.75;5052349;28;20041;-73
2022/08/29 06:31:54;;;;;;;5.35;2.08;;;;;;;14.20;74.00;100821.84;5034271;28;20094;-73
2022/08/29 06:34:19;;;;;;;5.18;1.77;;;;;;;14.13;74.23;100816.97;5052200;28;20044;-72
2022/08/29 06:36:45;;;;;;;5.10;1.65;;;;;;;14.17;74.59;100826.09;5051977;28;20479;-73
2022/08/29 06:39:11;;;;;;;6.50;2.13;;;;;;;14.52;73.31;100823.72;5034279;28;20044;-72
2022/08/29 06:41:37;;;;;;;;;;;;;;;14.61;73.02;100821.66;5052238;28;20028;-75
2022/08/29 06:44:03;;;;;;;4.57;1.50;;;;;;;14.65;72.63;100821.75;5034075;28;19990;-73
2022/08/29 06:46:29;;;;;;;7.43;1.45;;;;;;;14.77;72.30;100820.91;5052029;28;20433;-72
2022/08/29 06:48:56;;;;;;;5.53;1.80;;;;;;;14.80;72.21;100828.47;5051640;28;20029;-72
2022/08/29 06:51:22;;;;;;;8.40;2.30;;;;;;;14.82;72.25;100837.16;5051699;28;20140;-73
2022/08/29 06:53:48;;;;;;;5.95;1.50;;;;;;;14.82;72.25;100839.91;5033984;28;20038;-78
2022/08/29 06:56:16;;;;;;;6.68;1.75;;;;;;;14.94;71.95;100851.63;5052290;28;20025;-78
2022/08/29 06:58:42;;;;;;;4.55;1.73;;;;;;;15.06;71.34;100837.09;5034379;28;20041;-77
2022/08/29 07:01:18;;;;;;;5.38;1.70;;;;;;;15.07;71.99;100844.16;5034394;28;20036;-78
2022/08/29 07:03:44;;;;;;;7.20;2.35;;;;;;;15.25;70.60;100837.25;5052781;28;20104;-78
2022/08/29 07:06:10;;;;;;;3.63;1.50;;;;;;;15.10;70.55;100835.25;5052995;28;20091;-77
2022/08/29 07:08:36;;;;;;;5.47;1.77;;;;;;;15.01;71.38;100840.06;5052275;28;20467;-77
2022/08/29 07:11:03;;;;;;;8.85;2.25;;;;;;;15.09;71.25;100839.13;5051874;28;20124;-77
2022/08/29 07:13:29;;;;;;;5.22;1.70;;;;;;;15.40;70.36;100832.16;5052610;28;20024;-77
2022/08/29 07:15:54;;;;;;;7.72;1.60;;;;;;;15.43;69.71;100840.50;5052574;28;20494;-77
2022/08/29 07:18:20;;;;;;;4.65;1.70;;;;;;;15.49;69.27;100830.88;5052333;28;20422;-77
2022/08/29 07:20:45;;;;;;;6.97;1.88;;;;;;;15.67;68.93;100838.81;5051918;28;20029;-77
2022/08/29 07:23:11;;;;;;;6.05;1.85;;;;;;;15.80;68.89;100837.63;5052635;28;20124;-77
2022/08/29 07:25:36;;;;;;;10.13;2.50;;;;;;;15.80;68.64;100849.38;5052242;28;20044;-77
2022/08/29 07:28:02;;;;;;;;;;;;;;;16.01;68.04;100848.34;5052716;28;20028;-77
2022/08/29 07:30:28;;;;;;;9.68;2.70;;;;;;;16.19;67.40;100849.59;5052457;28;20031;-79
2022/08/29 07:32:53;;;;;;;;;;;;;;;16.02;67.25;100841.69;5052955;28;20109;-79
2022/08/29 07:35:19;;;;;;;5.30;1.25;;;;;;;15.94;67.97;100846.19;5054803;28;19923;-78
2022/08/29 07:37:44;;;;;;;;;;;;;;;15.92;68.25;100854.78;5056745;28;20025;-78
2022/08/29 07:40:13;;;;;;;6.28;1.60;;;;;;;15.76;68.75;100850.44;5056689;28;20413;-78
2022/08/29 07:42:39;;;;;;;7.78;1.55;;;;;;;15.64;68.62;100854.84;5038511;28;20029;-80
2022/08/29 07:45:07;;;;;;;2.97;1.30;;;;;;;15.63;69.07;100857.94;5056299;28;20060;-78
2022/08/29 07:47:33;;;;;;;4.50;2.00;;;;;;;15.99;67.68;100847.91;5056133;28;20051;-78
2022/08/29 07:50:00;;;;;;;7.97;2.58;;;;;;;15.92;67.45;100852.03;5056246;28;20029;-78
2022/08/29 07:52:27;;;;;;;7.50;1.98;;;;;;;15.95;67.67;100850.53;5056281;28;20032;-77
2022/08/29 07:54:52;;;;;;;7.95;1.77;;;;;;;16.04;67.68;100847.63;5056582;28;20123;-78
2022/08/29 07:57:17;;;;;;;3.30;1.27;;;;;;;16.08;68.35;100841.06;5038529;28;20068;-79
2022/08/29 07:59:43;;;;;;;3.55;1.40;;;;;;;16.04;67.48;100842.13;5056102;28;20363;-78
2022/08/29 08:02:09;;;;;;;;;;;;;;;15.98;67.64;100841.63;5056582;28;20037;-80
2022/08/29 08:04:34;;;;;;;4.65;1.90;;;;;;;16.10;67.77;100846.22;5056303;28;20278;-79
2022/08/29 08:06:59;;;;;;;;;;;;;;;16.06;67.86;100850.81;5056478;28;20139;-79
2022/08/29 08:09:24;;;;;;;4.93;1.47;;;;;;;16.26;66.89;100849.75;5055825;28;20011;-79
2022/08/29 08:11:50;;;;;;;5.78;1.50;;;;;;;16.41;65.98;100850.91;5038067;28;20271;-78
2022/08/29 08:14:15;;;;;;;4.78;1.50;;;;;;;16.60;65.70;100850.16;5038776;28;20044;-78
2022/08/29 08:16:41;;;;;;;3.83;1.15;;;;;;;16.65;65.16;100852.66;5056210;28;20528;-78
2022/08/29 08:19:06;;;;;;;;;;;;;;;16.71;64.08;100857.53;5056557;28;20047;-79
2022/08/29 08:21:32;;;;;;;3.57;1.30;;;;;;;16.89;63.08;100857.94;5038352;28;19927;-79
2022/08/29 08:23:57;;;;;;;4.85;1.30;;;;;;;16.91;62.76;100861.13;5056749;28;20271;-78
2022/08/29 08:26:23;;;;;;;;;;;;;;;16.88;61.72;100861.84;5055798;28;20025;-78
2022/08/29 08:28:48;;;;;;;2.88;1.08;;;;;;;16.90;60.48;100861.50;5055883;28;19920;-78
2022/08/29 08:31:15;;;;;;;3.65;1.10;;;;;;;16.94;61.03;100863.16;5055654;28;20029;-78
2022/08/29 08:33:42;;;;;;;4.75;1.10;;;;;;;17.06;60.38;100871.28;5055934;28;20033;-78
2022/08/29 08:36:18;;;;;;;2.90;1.00;;;;;;;17.18;58.51;100862.13;5038077;28;20105;-79
2022/08/29 08:38:43;;;;;;;2.80;0.90;;;;;;;17.05;58.67;100872.44;5055609;28;20037;-78
2022/08/29 08:41:19;;;;;;;5.63;1.35;;;;;;;17.16;59.32;100866.38;5055958;28;20043;-79
2022/08/29 08:43:56;;;;;;;6.00;1.40;;;;;;;17.19;59.15;100868.41;5037828;28;20086;-78
2022/08/29 08:46:33;;;;;;;3.15;1.23;;;;;;;17.05;58.66;100868.91;5054330;28;20034;-79
2022/08/29 08:49:00;;;;;;;4.53;1.05;;;;;;;17.29;58.76;100868.63;5037667;28;20028;-78
2022/08/29 08:51:32;;;;;;;4.82;1.00;;;;;;;17.22;58.14;100859.44;5055280;28;20025;-77
2022/08/29 08:54:00;;;;;;;4.45;1.23;;;;;;;17.06;59.08;100859.50;5055127;28;20028;-78
2022/08/29 08:56:43;;;;;;;3.67;1.00;;;;;;;17.25;58.62;100866.97;5054660;28;20104;-75
2022/08/29 08:59:15;;;;;;;3.65;1.38;;;;;;;17.49;57.70;100866.69;5054685;28;20029;-75
2022/08/29 09:01:55;;;;;;;4.40;1.05;;;;;;;17.45;57.50;100866.59;5054190;28;20100;-73
2022/08/29 09:04:30;;;;;;;4.15;1.60;;;;;;;17.58;57.16;100864.50;5036232;28;20052;-73
2022/08/29 09:07:29;;;;;;;5.07;1.25;;;;;;;17.49;58.06;100860.38;5054741;28;20032;-72
2022/08/29 09:10:21;;;;;;;4.15;1.15;;;;;;;17.72;56.48;100862.03;5054411;28;20029;-72
2022/08/29 09:13:07;;;;;;;3.03;1.08;;;;;;;17.88;55.46;100866.66;5054860;28;20039;-72
2022/08/29 09:15:40;;;;;;;6.20;2.28;;;;;;;17.73;56.17;100868.34;5054306;28;20029;-74
2022/08/29 09:18:38;;;;;;;5.72;1.08;;;;;;;17.56;56.96;100866.81;5036400;28;20352;-73
2022/08/29 09:21:09;;;;;;;4.05;1.20;;;;;;;17.55;57.78;100859.72;5054227;28;20029;-73
2022/08/29 09:23:44;;;;;;;2.88;0.98;;;;;;;17.25;57.90;100864.22;5054869;28;20143;-73
2022/08/29 09:26:11;;;;;;;4.55;1.13;;;;;;;17.22;58.47;100860.22;5054539;28;20029;-74
2022/08/29 09:28:36;;;;;;;4.35;1.40;;;;;;;17.41;57.66;100862.19;5054392;28;20033;-73
2022/08/29 09:31:31;;;;;;;3.78;0.88;;;;;;;17.44;57.07;100864.19;5053771;28;20040;-73
2022/08/29 09:34:03;;;;;;;3.42;1.13;;;;;;;17.60;56.87;100851.16;5054069;28;20478;-73
2022/08/29 09:36:45;;;;;;;3.03;1.10;;;;;;;17.59;57.19;100851.50;5054386;28;20036;-73
2022/08/29 09:39:16;;;;;;;4.93;1.75;;;;;;;17.42;57.79;100855.50;5054330;28;20078;-74
2022/08/29 09:41:44;;;;;;;8.20;2.75;;;;;;;17.52;58.01;100873.41;5036133;28;20379;-74
2022/08/29 09:44:19;;;;;;;6.30;1.50;;;;;;;17.52;57.58;100870.66;5053966;28;20029;-74
2022/08/29 09:46:45;;;;;;;5.32;1.52;;;;;;;17.53;57.58;100867.53;5036469;28;20029;-74
2022/08/29 09:49:15;;;;;;;;;;;;;;;17.75;57.26;100863.28;5054375;28;20174;-73
2022/08/29 09:51:47;;;;;;;5.32;1.23;;;;;;;17.94;56.44;100862.44;5054183;28;19908;-74
2022/08/29 09:54:21;;;;;;;5.20;1.65;;;;;;;17.88;56.51;100861.94;5054126;28;20021;-74
2022/08/29 09:57:01;;;;;;;4.03;1.30;;;;;;;18.10;56.78;100857.59;5054056;28;20111;-73
2022/08/29 09:59:28;;;;;;;4.03;2.00;;;;;;;18.11;56.56;100852.88;5035683;28;20048;-73
2022/08/29 10:02:23;;;;;;;3.55;1.25;;;;;;;18.44;56.52;100849.47;5053719;28;20032;-73
2022/08/29 10:05:05;;;;;;;6.20;1.95;;;;;;;18.83;53.57;100845.41;5053584;28;20052;-72
2022/08/29 10:07:51;;;;;;;4.20;1.33;;;;;;;18.55;54.92;100844.94;5053221;28;20106;-71
2022/08/29 10:10:25;;;;;;;5.57;1.88;;;;;;;18.60;54.70;100844.63;5053103;28;20040;-72
2022/08/29 10:13:10;;;;;;;4.15;1.40;;;;;;;18.62;54.78;100847.78;5035414;28;20039;-73
2022/08/29 10:16:13;;;;;;;4.47;1.40;;;;;;;18.92;53.47;100837.63;5053195;28;20329;-72
2022/08/29 10:18:54;;;;;;;12.13;2.17;;;;;;;19.25;52.49;100844.34;5053634;28;20108;-72
2022/08/29 10:21:28;;;;;;;6.05;1.38;;;;;;;19.28;52.39;100832.56;5053318;28;20033;-72
2022/08/29 10:23:57;;;;;;;3.90;1.70;;;;;;;19.37;51.84;100838.59;5053016;28;20036;-72
2022/08/29 10:26:53;;;;;;;3.45;1.30;;;;;;;19.34;52.28;100839.34;5052886;28;20029;-73
2022/08/29 10:30:01;;;;;;;3.75;1.20;;;;;;;19.67;51.24;100838.56;5053264;28;20034;-73
2022/08/29 10:32:50;;;;;;;3.85;1.63;;;;;;;19.36;51.56;100839.75;5053216;28;20471;-72
2022/08/29 10:35:23;;;;;;;4.28;1.30;;;;;;;18.89;52.55;100843.09;5034996;28;20119;-72
2022/08/29 10:37:56;;;;;;;4.20;1.17;;;;;;;18.86;53.25;100844.66;5034964;28;20356;-72
2022/08/29 10:40:51;;;;;;;3.75;1.35;;;;;;;18.96;52.90;100848.69;5053032;28;20064;-73
2022/08/29 10:43:28;;;;;;;4.05;1.27;;;;;;;19.15;52.18;100837.53;5029297;28;20532;-73
2022/08/29 10:46:28;;;;;;;6.10;1.13;;;;;;;19.34;51.97;100830.28;5052738;28;20040;-72
2022/08/29 10:49:08;;;;;;;7.32;1.40;;;;;;;19.46;51.03;100825.28;5052662;28;20070;-72
2022/08/29 10:51:57;;;;;;;4.47;1.73;;;;;;;19.36;51.27;100830.69;5052809;28;20091;-72
2022/08/29 10:54:25;;;;;;;4.22;1.42;;;;;;;19.44;50.84;100827.63;5052668;28;20056;-73
2022/08/29 10:56:53;;;;;;;3.53;1.27;;;;;;;19.59;50.82;100827.81;5052552;28;20029;-73
2022/08/29 10:59:52;;;;;;;3.92;1.50;;;;;;;19.69;50.70;100824.38;5035027;28;20031;-73
2022/08/29 11:02:50;;;;;;;4.35;1.10;;;;;;;20.13;49.31;100825.16;5052421;28;20040;-73
2022/08/29 11:05:23;;;;;;;6.38;2.00;;;;;;;20.00;48.30;100823.88;5052847;28;20426;-73
2022/08/29 11:08:06;;;;;;;8.43;2.72;;;;;;;19.89;49.00;100820.22;5052438;28;20090;-73
2022/08/29 11:10:39;;;;;;;12.05;3.45;;;;;;;19.94;49.50;100817.09;5052027;28;20025;-73
2022/08/29 11:13:31;;;;;;;5.32;1.60;;;;;;;19.80;49.00;100814.19;5052829;28;20025;-72
2022/08/29 11:16:13;;;;;;;3.80;1.52;;;;;;;19.79;48.44;100807.88;5020632;28;20044;-73
2022/08/29 11:18:48;;;;;;;5.00;1.15;;;;;;;19.67;48.94;100804.63;5052433;28;20032;-73
2022/08/29 11:21:38;;;;;;;4.13;1.48;;;;;;;19.97;48.60;100802.50;5052659;28;20032;-73
2022/08/29 11:24:04;;;;;;;3.83;1.23;;;;;;;20.04;48.11;100797.06;5034634;28;20127;-73
2022/08/29 11:26:32;;;;;;;3.85;1.27;;;;;;;20.17;47.14;100788.47;5052508;28;20439;-72
2022/08/29 11:29:21;;;;;;;6.63;1.38;;;;;;;20.14;47.87;100787.25;5052548;28;20036;-72
2022/08/29 11:32:08;;;;;;;4.63;1.50;;;;;;;20.25;47.52;100782.59;5052260;28;20036;-76
2022/08/29 11:35:01;;;;;;;6.10;1.20;;;;;;;20.11;48.02;100783.28;5052132;28;20044;-73
2022/08/29 11:37:55;;;;;;;3.85;1.42;;;;;;;20.21;47.60;100776.25;5052189;28;20037;-73
2022/08/29 11:40:29;;;;;;;4.07;1.00;;;;;;;20.19;46.58;100767.56;5052204;28;20066;-74
2022/08/29 11:43:00;;;;;;;5.82;1.40;;;;;;;20.57;46.48;100773.75;5052479;28;20109;-73
2022/08/29 11:45:30;;;;;;;2.67;0.95;;;;;;;21.05;45.08;100770.81;5052157;28;20090;-72